Tarrant West's Hourly Summary for Saturday, March 18, 2017
Hour Temp
(f)
RH
(%)
Solar Rad.
(MJ/m2)
Rainfall
(in)
Wind
(mph)
3/18/2017 12:00 AM 67 73 0 0 9.57
3/18/2017 1:00 AM 66 77 0 0 9.88
3/18/2017 2:00 AM 64 82 0 0 11.18
3/18/2017 3:00 AM 63 87 0 0 9.9
3/18/2017 4:00 AM 61 92 0 0 7.97
3/18/2017 5:00 AM 61 96 0 0 8.07
3/18/2017 6:00 AM 62 96 0 0 7.97
3/18/2017 7:00 AM 63 93 0 0 6.38
3/18/2017 8:00 AM 63 93 0.17 0 6.33
3/18/2017 9:00 AM 67 83 0.91 0 8.28
3/18/2017 10:00 AM 71 71 1.7 0 10.25
3/18/2017 11:00 AM 75 62 2.29 0 7.28
3/18/2017 12:00 PM 77 58 2.71 0 6.88
3/18/2017 1:00 PM 79 55 2.97 0 7.95
3/18/2017 2:00 PM 81 50 3.11 0 8
3/18/2017 3:00 PM 82 45 2.56 0 10
3/18/2017 4:00 PM 82 43 1.63 0 11.22
3/18/2017 5:00 PM 81 46 1.04 0 11.25
3/18/2017 6:00 PM 78 50 0.41 0 10.63
3/18/2017 7:00 PM 76 54 0.14 0 9.88
3/18/2017 8:00 PM 72 64 0 0 7.67
3/18/2017 9:00 PM 69 70 0 0 6.95
3/18/2017 10:00 PM 68 74 0 0 7.17
3/18/2017 11:00 PM 66 80 0 0 6.25
Data Summary 70 70 19.64 0.00 8.62